Time;durP1;ratioP1;P1;durP2;ratioP2;P2;SDS_P1;SDS_P2;PMS_P1;PMS_P2;Temp;Humidity;BMP_temperature;BMP_pressure;BME280_temperature;BME280_humidity;BME280_pressure;Samples;Min_cycle;Max_cycle;Signal;HPM_P1;HPM_P2
2022/07/19 00:00:46;;;;;;;0.93;0.80;;;;;;;14.33;66.45;97173.59;5113481;28;20409;-69
2022/07/19 00:03:14;;;;;;;1.10;1.00;;;;;;;14.35;66.36;97182.28;5117115;28;20059;-68
2022/07/19 00:05:41;;;;;;;1.27;0.90;;;;;;;14.31;65.66;97176.31;5117150;28;20044;-68
2022/07/19 00:08:08;;;;;;;1.63;0.80;;;;;;;14.24;65.64;97175.69;5117026;28;20096;-68
2022/07/19 00:10:36;;;;;;;1.17;0.90;;;;;;;14.21;65.79;97167.94;5116896;28;20044;-70
2022/07/19 00:13:04;;;;;;;1.13;0.90;;;;;;;14.17;66.48;97171.63;5117006;28;20087;-71
2022/07/19 00:15:31;;;;;;;1.98;1.02;;;;;;;14.15;66.09;97165.59;5116944;28;20078;-67
2022/07/19 00:18:00;;;;;;;4.00;1.00;;;;;;;14.08;66.14;97164.09;5117365;28;20048;-70
2022/07/19 00:20:27;;;;;;;0.80;0.80;;;;;;;14.00;66.52;97169.72;5117145;28;20120;-71
2022/07/19 00:22:54;;;;;;;2.35;1.10;;;;;;;13.81;68.41;97167.84;5116669;28;20082;-69
2022/07/19 00:25:22;;;;;;;1.77;1.20;;;;;;;13.77;68.48;97163.63;5116762;28;20463;-70
2022/07/19 00:27:49;;;;;;;1.60;1.27;;;;;;;13.75;68.00;97158.44;5116748;28;20412;-68
2022/07/19 00:30:16;;;;;;;1.38;0.98;;;;;;;13.74;67.80;97159.34;5116713;28;20040;-71
2022/07/19 00:32:44;;;;;;;1.00;0.88;;;;;;;13.74;67.73;97159.34;5116511;28;20105;-68
2022/07/19 00:35:12;;;;;;;1.48;1.00;;;;;;;13.75;67.63;97155.81;5116525;28;20050;-71
2022/07/19 00:37:39;;;;;;;1.60;1.00;;;;;;;13.75;67.14;97158.44;5116480;28;20093;-70
2022/07/19 00:40:08;;;;;;;2.40;0.90;;;;;;;13.62;67.60;97155.47;5116386;28;20043;-69
2022/07/19 00:42:35;;;;;;;1.77;1.20;;;;;;;13.56;67.95;97157.47;5116392;28;20043;-69
2022/07/19 00:45:02;;;;;;;4.57;1.27;;;;;;;13.52;67.77;97148.88;5116466;28;20044;-68
2022/07/19 00:47:29;;;;;;;2.72;1.20;;;;;;;13.53;68.39;97147.94;5116504;28;20516;-70
2022/07/19 00:49:56;;;;;;;2.67;1.15;;;;;;;13.55;68.54;97147.88;5116394;28;20048;-69
2022/07/19 00:52:29;;;;;;;1.05;0.90;;;;;;;13.52;68.27;97146.22;5116025;28;20087;-69
2022/07/19 00:54:57;;;;;;;1.73;1.20;;;;;;;13.46;68.21;97144.66;5116148;28;20047;-71
2022/07/19 00:57:25;;;;;;;3.75;1.20;;;;;;;13.43;68.63;97150.06;5116107;28;20079;-69
2022/07/19 00:59:54;;;;;;;2.95;1.25;;;;;;;13.41;69.00;97146.63;5115817;28;20044;-68
2022/07/19 01:02:23;;;;;;;4.32;1.17;;;;;;;13.43;68.60;97139.53;5115888;28;20532;-70
2022/07/19 01:04:50;;;;;;;1.70;1.05;;;;;;;13.39;68.30;97136.16;5115957;28;20048;-71
2022/07/19 01:07:18;;;;;;;1.48;1.10;;;;;;;13.39;68.82;97133.53;5115830;28;20143;-68
2022/07/19 01:09:47;;;;;;;1.83;1.10;;;;;;;13.30;68.59;97133.91;5115795;28;20050;-68
2022/07/19 01:12:14;;;;;;;4.60;1.02;;;;;;;13.28;68.65;97133.13;5115405;28;20051;-68
2022/07/19 01:14:41;;;;;;;1.75;1.02;;;;;;;13.31;68.52;97140.03;5115381;28;20077;-68
2022/07/19 01:17:08;;;;;;;1.90;0.90;;;;;;;13.32;68.61;97131.22;5115847;28;20538;-70
2022/07/19 01:19:35;;;;;;;2.05;1.30;;;;;;;13.35;68.38;97138.97;5115743;28;20040;-70
2022/07/19 01:22:04;;;;;;;2.67;1.20;;;;;;;13.34;68.69;97124.97;5115702;28;20048;-68
2022/07/19 01:24:31;;;;;;;1.92;0.98;;;;;;;13.32;68.98;97134.72;5115647;28;20127;-68
2022/07/19 01:26:58;;;;;;;2.60;1.20;;;;;;;13.31;69.02;97130.38;5115537;28;20469;-71
2022/07/19 01:29:25;;;;;;;1.27;1.08;;;;;;;13.28;68.81;97130.50;5115493;28;20048;-68
2022/07/19 01:31:52;;;;;;;1.30;0.95;;;;;;;13.27;69.28;97126.13;5115334;28;20059;-71
2022/07/19 01:34:19;;;;;;;1.50;1.20;;;;;;;13.30;69.13;97122.56;5115375;28;20043;-70
2022/07/19 01:36:47;;;;;;;1.55;1.40;;;;;;;13.20;69.14;97112.41;5115342;28;20142;-69
2022/07/19 01:39:15;;;;;;;3.05;1.17;;;;;;;13.21;69.03;97119.38;5115228;28;20047;-70
2022/07/19 01:41:42;;;;;;;1.42;1.15;;;;;;;13.19;69.86;97118.59;5115123;28;20051;-71
2022/07/19 01:44:10;;;;;;;2.15;1.20;;;;;;;13.21;69.15;97113.25;5115096;28;20143;-69
2022/07/19 01:46:37;;;;;;;2.83;1.15;;;;;;;13.17;69.46;97117.78;5115125;28;20130;-69
2022/07/19 01:49:04;;;;;;;1.20;1.17;;;;;;;13.14;69.25;97117.91;5115066;28;20063;-69
2022/07/19 01:51:31;;;;;;;4.38;1.10;;;;;;;13.16;69.38;97128.34;5114977;28;20120;-71
2022/07/19 01:53:59;;;;;;;1.77;1.30;;;;;;;13.14;69.52;97116.13;5114921;28;20144;-72
2022/07/19 01:56:27;;;;;;;2.50;1.60;;;;;;;13.11;69.90;97125.91;5114962;28;20051;-72
2022/07/19 01:58:54;;;;;;;2.25;1.40;;;;;;;13.06;69.68;97125.22;5114894;28;20090;-68
2022/07/19 02:01:22;;;;;;;2.65;1.30;;;;;;;13.06;69.61;97126.06;5114635;28;20066;-69
2022/07/19 02:03:49;;;;;;;4.43;1.85;;;;;;;13.07;69.41;97126.94;5115165;28;20051;-69
2022/07/19 02:06:16;;;;;;;4.15;1.30;;;;;;;13.01;69.26;97126.25;5115041;28;20089;-72
2022/07/19 02:08:43;;;;;;;1.70;1.25;;;;;;;12.97;69.40;97123.78;5114678;28;20055;-69
2022/07/19 02:13:56;;;;;;;1.00;1.00;;;;;;;12.89;69.64;97122.31;5114774;28;20051;-71
2022/07/19 02:16:24;;;;;;;1.50;1.33;;;;;;;12.88;69.38;97123.25;5114698;28;20043;-69
2022/07/19 02:18:51;;;;;;;1.63;1.20;;;;;;;12.81;69.20;97119.13;5114482;28;20504;-68
2022/07/19 02:21:19;;;;;;;1.40;1.30;;;;;;;12.77;69.66;97121.00;5114387;28;20047;-69
2022/07/19 02:23:46;;;;;;;1.70;1.58;;;;;;;12.80;69.90;97113.94;5114478;28;20048;-69
2022/07/19 02:26:13;;;;;;;1.90;1.40;;;;;;;12.79;69.30;97117.50;5114431;28;20083;-69
2022/07/19 02:28:41;;;;;;;1.50;1.20;;;;;;;12.73;69.45;97121.19;5114337;28;20085;-69
2022/07/19 02:31:09;;;;;;;1.17;1.08;;;;;;;12.69;69.35;97116.97;5114386;28;20090;-71
2022/07/19 02:33:36;;;;;;;5.78;1.40;;;;;;;12.68;69.69;97123.13;5114208;28;20554;-68
2022/07/19 02:36:04;;;;;;;2.88;1.55;;;;;;;12.64;70.50;97123.25;5114134;28;20147;-71
2022/07/19 02:38:32;;;;;;;1.40;1.30;;;;;;;12.68;69.86;97124.00;5114186;28;20097;-68
2022/07/19 02:40:59;;;;;;;2.28;1.10;;;;;;;12.67;69.32;97127.53;5114056;28;20040;-71
2022/07/19 02:43:26;;;;;;;5.78;1.50;;;;;;;12.56;70.06;97122.69;5114145;28;20122;-69
2022/07/19 02:45:53;;;;;;;1.77;1.25;;;;;;;12.53;70.72;97129.81;5114103;28;20101;-70
2022/07/19 02:48:22;;;;;;;2.88;1.40;;;;;;;12.53;70.37;97129.81;5114038;28;20546;-72
2022/07/19 02:50:49;;;;;;;4.50;1.52;;;;;;;12.51;70.41;97124.63;5113927;28;20039;-70
2022/07/19 02:53:16;;;;;;;2.55;1.52;;;;;;;12.51;70.22;97127.25;5113810;28;20086;-70
2022/07/19 02:55:44;;;;;;;4.03;1.15;;;;;;;12.49;70.63;97135.16;5113859;28;20393;-70
2022/07/19 02:58:11;;;;;;;2.97;1.50;;;;;;;12.48;70.70;97129.97;5113840;28;20511;-71
2022/07/19 03:00:38;;;;;;;1.60;1.50;;;;;;;12.48;70.64;97132.59;5113614;28;20123;-69
2022/07/19 03:05:50;;;;;;;1.80;1.33;;;;;;;12.48;70.73;97133.47;5113058;28;20050;-70
2022/07/19 03:08:17;;;;;;;8.30;2.63;;;;;;;12.48;70.79;97136.09;5113669;28;20477;-71
2022/07/19 03:10:44;;;;;;;4.32;1.60;;;;;;;12.46;71.04;97131.81;5113778;28;20048;-73
2022/07/19 03:13:11;;;;;;;3.78;1.45;;;;;;;12.43;71.04;97129.31;5113606;28;20048;-70
2022/07/19 03:15:39;;;;;;;1.45;1.35;;;;;;;12.42;71.01;97135.44;5113718;28;20100;-71
2022/07/19 03:18:06;;;;;;;1.50;1.40;;;;;;;12.41;71.18;97134.59;5113641;28;20083;-73
2022/07/19 03:20:33;;;;;;;4.45;1.67;;;;;;;12.42;71.41;97131.06;5113442;28;20500;-74
2022/07/19 03:23:02;;;;;;;1.80;1.63;;;;;;;12.46;71.14;97129.19;5113538;28;20043;-71
2022/07/19 03:25:29;;;;;;;6.70;1.40;;;;;;;12.52;70.60;97134.19;5113546;28;20146;-70
2022/07/19 03:27:57;;;;;;;1.65;1.55;;;;;;;12.53;70.73;97128.06;5113494;28;20044;-72
2022/07/19 03:30:24;;;;;;;3.28;1.70;;;;;;;12.55;70.61;97131.47;5113526;28;20075;-70
2022/07/19 03:32:51;;;;;;;4.85;1.65;;;;;;;12.55;70.84;97128.84;5113373;28;20044;-73
2022/07/19 03:35:19;;;;;;;1.95;1.60;;;;;;;12.59;71.13;97137.47;5113509;28;20050;-72
2022/07/19 03:37:46;;;;;;;3.83;1.58;;;;;;;12.61;70.92;97130.38;5117537;28;20464;-70
2022/07/19 03:40:15;;;;;;;6.28;1.52;;;;;;;12.64;70.98;97123.25;5117990;28;20048;-73
2022/07/19 03:42:42;;;;;;;6.25;1.50;;;;;;;12.68;71.20;97128.38;5117610;28;20450;-70
2022/07/19 03:45:10;;;;;;;1.67;1.58;;;;;;;12.75;71.51;97133.34;5117463;28;20443;-70
2022/07/19 03:47:38;;;;;;;4.72;1.80;;;;;;;12.89;71.42;97135.44;5117331;28;20054;-71
2022/07/19 03:50:05;;;;;;;2.95;1.42;;;;;;;13.17;71.03;97132.69;5117521;28;20047;-70
2022/07/19 03:52:33;;;;;;;3.17;1.20;;;;;;;13.54;69.83;97131.25;5117321;28;20051;-70
2022/07/19 03:54:59;;;;;;;3.78;1.60;;;;;;;13.97;68.92;97135.66;5117447;28;20092;-74
2022/07/19 03:57:28;;;;;;;1.67;1.30;;;;;;;14.50;67.21;97138.63;5117338;28;20493;-73
2022/07/19 03:59:55;;;;;;;2.65;1.30;;;;;;;15.07;65.40;97139.63;5116988;28;20134;-73
2022/07/19 04:02:22;;;;;;;3.83;1.60;;;;;;;15.60;62.67;97137.16;5117320;28;20048;-73
2022/07/19 04:04:50;;;;;;;1.95;1.13;;;;;;;16.07;61.52;97141.00;5117165;28;20040;-73
2022/07/19 04:07:17;;;;;;;4.97;1.42;;;;;;;16.53;60.41;97147.50;5117150;28;20087;-72
2022/07/19 04:09:44;;;;;;;8.25;2.22;;;;;;;16.92;59.20;97148.94;5117164;28;20048;-73
2022/07/19 04:12:12;;;;;;;6.15;1.70;;;;;;;17.38;58.21;97150.03;5117007;28;20056;-73
2022/07/19 04:14:40;;;;;;;10.93;1.58;;;;;;;17.78;57.46;97144.25;5116982;28;20051;-71
2022/07/19 04:17:08;;;;;;;3.40;1.48;;;;;;;18.16;56.16;97147.41;5116883;28;20445;-71
2022/07/19 04:19:36;;;;;;;4.00;1.42;;;;;;;18.63;54.95;97156.06;5116888;28;20465;-73
2022/07/19 04:22:03;;;;;;;2.83;1.25;;;;;;;19.06;53.72;97149.91;5116887;28;20044;-73
2022/07/19 04:24:31;;;;;;;1.73;1.08;;;;;;;19.45;53.63;97147.47;5116701;28;20060;-73
2022/07/19 04:26:58;;;;;;;5.03;1.30;;;;;;;19.82;52.76;97144.25;5116756;28;20093;-72
2022/07/19 04:29:25;;;;;;;2.83;1.25;;;;;;;20.18;51.59;97149.00;5116742;28;20047;-71
2022/07/19 04:31:54;;;;;;;5.32;1.38;;;;;;;20.60;50.55;97145.31;5116658;28;20448;-71
2022/07/19 04:34:22;;;;;;;1.48;1.20;;;;;;;20.91;49.90;97149.38;5116608;28;20044;-74
2022/07/19 04:36:49;;;;;;;3.53;1.27;;;;;;;21.20;49.81;97143.75;5116491;28;20043;-72
2022/07/19 04:39:17;;;;;;;1.75;1.13;;;;;;;21.51;49.32;97145.16;5116507;28;20047;-72
2022/07/19 04:41:44;;;;;;;2.75;1.70;;;;;;;21.81;48.78;97146.53;5116506;28;20048;-71
2022/07/19 04:44:11;;;;;;;2.70;1.20;;;;;;;22.19;47.68;97139.31;5116377;28;20447;-72
2022/07/19 04:46:38;;;;;;;4.43;1.58;;;;;;;22.51;46.83;97143.97;5116275;28;20092;-72
2022/07/19 04:49:07;;;;;;;3.83;0.90;;;;;;;22.83;46.77;97147.78;5114985;28;20489;-73
2022/07/19 04:51:34;;;;;;;2.65;1.10;;;;;;;23.14;46.12;97142.66;5116255;28;20092;-71
2022/07/19 04:54:02;;;;;;;2.45;1.30;;;;;;;23.48;46.20;97149.81;5115964;28;20059;-71
2022/07/19 04:56:29;;;;;;;3.53;1.10;;;;;;;23.81;45.75;97141.81;5116064;28;20400;-71
2022/07/19 04:58:56;;;;;;;7.32;0.98;;;;;;;24.14;44.89;97142.66;5116079;28;20481;-71
2022/07/19 05:01:24;;;;;;;4.78;1.25;;;;;;;24.42;43.81;97140.34;5115865;28;20439;-72
2022/07/19 05:03:51;;;;;;;1.92;1.15;;;;;;;24.73;42.15;97136.81;5115941;28;20065;-72
2022/07/19 05:06:19;;;;;;;3.35;1.30;;;;;;;24.97;42.33;97138.38;5115985;28;20090;-71
2022/07/19 05:08:46;;;;;;;1.85;1.42;;;;;;;25.22;42.53;97145.06;5115873;28;20047;-71
2022/07/19 05:11:14;;;;;;;1.90;0.93;;;;;;;25.47;41.90;97134.84;5115759;28;20480;-71
2022/07/19 05:13:41;;;;;;;4.18;0.73;;;;;;;25.68;41.46;97138.44;5115629;28;20051;-71
2022/07/19 05:16:08;;;;;;;1.27;0.95;;;;;;;25.92;41.56;97131.81;5115776;28;20043;-71
2022/07/19 05:18:35;;;;;;;8.10;1.33;;;;;;;26.22;41.07;97138.84;5115674;28;20105;-70
2022/07/19 05:21:03;;;;;;;5.82;1.33;;;;;;;26.44;40.77;97134.19;5115643;28;20039;-71
2022/07/19 05:23:31;;;;;;;2.80;1.00;;;;;;;26.72;41.25;97139.59;5115574;28;20408;-71
2022/07/19 05:25:59;;;;;;;5.07;1.38;;;;;;;26.96;41.13;97140.94;5115614;28;20052;-71
2022/07/19 05:28:26;;;;;;;1.90;1.10;;;;;;;27.19;40.11;97142.41;5115616;28;20043;-71
2022/07/19 05:30:53;;;;;;;4.15;1.30;;;;;;;27.46;39.11;97138.88;5115482;28;20066;-70
2022/07/19 05:33:20;;;;;;;6.95;2.15;;;;;;;27.74;38.11;97135.31;5115389;28;20058;-70
2022/07/19 05:35:47;;;;;;;4.65;1.30;;;;;;;28.01;38.37;97136.22;5115407;28;20048;-71
2022/07/19 05:38:14;;;;;;;5.57;1.27;;;;;;;28.16;37.97;97135.66;5115351;28;20492;-71
2022/07/19 05:40:43;;;;;;;2.60;1.10;;;;;;;28.44;37.07;97141.78;5115313;28;20169;-71
2022/07/19 05:43:10;;;;;;;2.42;1.20;;;;;;;28.75;36.37;97132.41;5115175;28;20051;-71
2022/07/19 05:45:38;;;;;;;3.95;1.13;;;;;;;28.95;37.45;97138.41;5115214;28;20044;-70
2022/07/19 05:48:05;;;;;;;3.72;1.33;;;;;;;29.00;35.10;97135.25;5115091;28;20607;-70
2022/07/19 05:50:33;;;;;;;1.92;1.17;;;;;;;29.19;32.66;97142.22;5115064;28;20125;-70
2022/07/19 05:53:00;;;;;;;3.05;1.10;;;;;;;29.23;34.45;97131.97;5114832;28;20052;-70
2022/07/19 05:55:27;;;;;;;1.13;1.00;;;;;;;29.25;27.00;97138.03;5115118;28;20052;-69
2022/07/19 05:57:56;;;;;;;4.03;0.90;;;;;;;28.73;29.01;97137.94;5115016;28;20431;-69
2022/07/19 06:00:23;;;;;;;3.95;1.17;;;;;;;28.60;28.03;97132.97;5114425;28;20058;-69
2022/07/19 06:02:51;;;;;;;4.55;1.10;;;;;;;28.53;28.29;97134.63;5114918;28;20124;-69
2022/07/19 06:05:18;;;;;;;1.77;0.93;;;;;;;28.62;26.46;97135.50;5114779;28;20051;-69
2022/07/19 06:07:45;;;;;;;3.58;1.17;;;;;;;28.59;27.05;97141.22;5114726;28;20048;-69
2022/07/19 06:10:12;;;;;;;2.38;1.35;;;;;;;28.41;28.04;97128.66;5114792;28;20097;-69
2022/07/19 06:12:39;;;;;;;2.63;1.00;;;;;;;28.83;27.96;97129.75;5114487;28;20047;-69
2022/07/19 06:15:09;;;;;;;4.53;0.90;;;;;;;29.10;27.41;97135.97;5114618;28;20489;-69
2022/07/19 06:17:36;;;;;;;6.53;1.08;;;;;;;29.28;27.62;97137.72;5114531;28;20051;-69
2022/07/19 06:20:04;;;;;;;1.20;0.80;;;;;;;29.05;27.78;97132.06;5114570;28;20481;-69
2022/07/19 06:22:32;;;;;;;1.67;0.85;;;;;;;29.28;26.10;97137.72;5114480;28;20047;-69
2022/07/19 06:24:59;;;;;;;2.85;0.98;;;;;;;28.81;25.34;97130.91;5114437;28;20051;-69
2022/07/19 06:27:27;;;;;;;6.10;1.30;;;;;;;28.18;23.08;97126.47;5114383;28;20043;-69
2022/07/19 06:29:54;;;;;;;2.63;1.08;;;;;;;27.51;23.31;97130.34;5114187;28;20047;-69
2022/07/19 06:32:23;;;;;;;2.45;1.08;;;;;;;27.07;24.14;97131.88;5114290;28;20568;-68
2022/07/19 06:34:50;;;;;;;3.38;1.10;;;;;;;27.36;24.41;97136.22;5114082;28;20090;-69
2022/07/19 06:37:18;;;;;;;2.20;1.02;;;;;;;27.51;25.96;97133.03;5114076;28;20044;-68
2022/07/19 06:39:45;;;;;;;5.45;0.95;;;;;;;27.81;23.19;97135.56;5114011;28;20382;-68
2022/07/19 06:42:12;;;;;;;1.45;0.80;;;;;;;27.61;23.49;97136.50;5114026;28;20044;-69
2022/07/19 06:44:40;;;;;;;2.35;0.80;;;;;;;27.38;23.05;97125.34;5113951;28;20109;-68
2022/07/19 06:47:07;;;;;;;1.40;0.95;;;;;;;27.25;23.11;97126.56;5113979;28;20485;-68
2022/07/19 06:49:36;;;;;;;3.90;0.90;;;;;;;27.13;23.86;97130.44;5114146;28;20043;-69
2022/07/19 06:52:04;;;;;;;3.20;1.00;;;;;;;27.22;24.75;97128.69;5113938;28;20477;-68
2022/07/19 06:54:31;;;;;;;1.75;0.90;;;;;;;27.53;24.80;97132.88;5113787;28;20051;-69
2022/07/19 06:57:01;;;;;;;3.67;1.48;;;;;;;27.91;22.85;97133.63;5113872;28;20104;-69
2022/07/19 06:59:29;;;;;;;2.03;1.20;;;;;;;28.22;23.02;97127.84;5113714;28;20095;-69
2022/07/19 07:01:56;;;;;;;2.17;1.15;;;;;;;28.49;23.44;97128.72;5113534;28;20127;-69
2022/07/19 07:04:23;;;;;;;3.88;1.23;;;;;;;28.36;22.83;97131.00;5113702;28;20092;-69
2022/07/19 07:06:52;;;;;;;1.15;0.90;;;;;;;28.01;23.13;97133.53;5113660;28;20052;-68
2022/07/19 07:09:19;;;;;;;5.32;1.17;;;;;;;28.08;23.13;97126.53;5113619;28;20475;-69
2022/07/19 07:11:47;;;;;;;2.72;1.00;;;;;;;28.03;23.21;97136.06;5113013;28;20051;-68
2022/07/19 07:14:15;;;;;;;3.90;1.10;;;;;;;27.98;23.53;97131.16;5113615;28;20092;-69
2022/07/19 07:16:42;;;;;;;3.30;1.00;;;;;;;27.73;23.76;97136.31;5113789;28;20058;-69
2022/07/19 07:19:10;;;;;;;3.10;1.00;;;;;;;27.50;24.09;97137.56;5113671;28;20048;-69
2022/07/19 07:21:38;;;;;;;5.47;1.50;;;;;;;27.58;24.47;97131.44;5113623;28;20476;-69
2022/07/19 07:24:07;;;;;;;2.13;1.20;;;;;;;28.04;25.47;97125.16;5113630;28;20054;-68
2022/07/19 07:26:35;;;;;;;2.05;1.13;;;;;;;28.44;24.42;97127.53;5113559;28;20050;-69
2022/07/19 07:29:02;;;;;;;1.40;1.00;;;;;;;28.53;23.90;97125.72;5113574;28;20566;-68
2022/07/19 07:31:30;;;;;;;4.25;1.00;;;;;;;28.95;23.60;97130.34;5113358;28;20051;-68
2022/07/19 07:33:58;;;;;;;3.03;1.13;;;;;;;28.87;23.04;97122.22;5113418;28;20056;-69
2022/07/19 07:36:26;;;;;;;5.00;0.88;;;;;;;28.85;23.98;97125.06;5113478;28;20044;-69
2022/07/19 07:38:53;;;;;;;5.07;1.00;;;;;;;28.94;22.88;97115.22;5113415;28;20485;-69
2022/07/19 07:41:22;;;;;;;1.35;1.05;;;;;;;28.43;22.14;97118.59;5113254;28;20043;-69
2022/07/19 07:43:50;;;;;;;0.75;0.75;;;;;;;28.20;23.85;97126.31;5113359;28;20094;-69
2022/07/19 07:46:17;;;;;;;3.15;1.23;;;;;;;28.28;24.54;97133.56;5113364;28;20066;-69
2022/07/19 07:48:44;;;;;;;1.77;1.20;;;;;;;28.30;23.04;97132.47;5113205;28;20405;-68
2022/07/19 07:51:12;;;;;;;6.10;1.30;;;;;;;28.25;23.15;97130.22;5113239;28;20052;-68
2022/07/19 07:53:39;;;;;;;2.55;1.02;;;;;;;28.28;24.27;97129.03;5113383;28;20073;-68
2022/07/19 07:56:07;;;;;;;2.30;1.20;;;;;;;28.41;23.43;97130.53;5113289;28;20047;-68
2022/07/19 07:58:37;;;;;;;2.15;1.25;;;;;;;28.34;24.01;97122.22;5113214;28;20131;-68
2022/07/19 08:01:04;;;;;;;1.45;1.20;;;;;;;28.71;23.99;97131.88;5112967;28;20596;-67
2022/07/19 08:03:32;;;;;;;6.03;1.30;;;;;;;28.35;22.92;97134.69;5113098;28;20050;-68
2022/07/19 08:06:00;;;;;;;2.63;1.40;;;;;;;28.19;23.46;97125.44;5113097;28;20047;-67
2022/07/19 08:08:28;;;;;;;4.13;1.10;;;;;;;27.93;23.37;97126.25;5113133;28;20051;-68
2022/07/19 08:10:55;;;;;;;1.30;1.20;;;;;;;27.93;24.20;97120.03;5113073;28;20070;-67
2022/07/19 08:13:24;;;;;;;4.35;1.10;;;;;;;28.49;23.33;97127.88;5113130;28;20050;-68
2022/07/19 08:15:53;;;;;;;2.78;1.33;;;;;;;28.29;22.83;97124.53;5112960;28;20054;-69
2022/07/19 08:18:20;;;;;;;4.80;1.10;;;;;;;28.29;23.54;97127.22;5113044;28;20044;-68
2022/07/19 08:20:47;;;;;;;3.15;1.33;;;;;;;28.45;24.51;97121.97;5112963;28;20043;-69
2022/07/19 08:23:19;;;;;;;2.40;1.02;;;;;;;28.38;24.55;97124.44;5115723;28;20112;-67
2022/07/19 08:25:46;;;;;;;1.35;1.10;;;;;;;28.49;22.92;97111.72;5116609;28;20075;-67
2022/07/19 08:28:14;;;;;;;1.50;1.05;;;;;;;28.62;24.22;97117.53;5116596;28;20139;-67
2022/07/19 08:30:42;;;;;;;4.47;1.27;;;;;;;28.85;23.21;97113.44;5116686;28;20043;-68
2022/07/19 08:33:11;;;;;;;2.72;1.25;;;;;;;28.77;23.09;97106.16;5116469;28;20138;-67
2022/07/19 08:35:39;;;;;;;2.17;1.10;;;;;;;28.87;24.48;97116.81;5116555;28;20115;-67
2022/07/19 08:38:06;;;;;;;3.17;1.08;;;;;;;28.86;23.79;97115.97;5116477;28;20043;-68
2022/07/19 08:40:39;;;;;;;1.50;1.00;;;;;;;28.73;23.96;97118.25;5116382;28;20473;-68
2022/07/19 08:43:07;;;;;;;1.60;1.13;;;;;;;28.84;22.52;97107.19;5116360;28;20050;-69
2022/07/19 08:45:36;;;;;;;2.20;1.13;;;;;;;29.20;22.71;97100.00;5116280;28;20051;-69
2022/07/19 08:48:07;;;;;;;4.27;1.10;;;;;;;29.37;22.25;97101.72;5116163;28;20059;-69
2022/07/19 08:50:36;;;;;;;3.60;1.27;;;;;;;29.46;23.31;97090.94;5116322;28;20291;-69
2022/07/19 08:53:04;;;;;;;3.87;1.40;;;;;;;29.19;22.90;97101.00;5116096;28;20043;-70
2022/07/19 08:55:32;;;;;;;4.68;1.13;;;;;;;29.05;22.79;97097.06;5116214;28;20485;-69
2022/07/19 08:58:00;;;;;;;2.65;1.20;;;;;;;29.12;23.13;97108.88;5116238;28;20386;-70
2022/07/19 09:00:30;;;;;;;1.48;1.05;;;;;;;28.67;23.07;97089.28;5115814;28;20108;-68
2022/07/19 09:02:59;;;;;;;3.45;1.30;;;;;;;28.90;23.77;97092.28;5115921;28;20052;-67
2022/07/19 09:05:27;;;;;;;2.78;1.17;;;;;;;28.96;22.83;97091.63;5116041;28;20469;-67
2022/07/19 09:08:06;;;;;;;0.98;0.88;;;;;;;28.79;23.60;97089.84;5115801;28;20115;-67
2022/07/19 09:10:36;;;;;;;3.92;1.27;;;;;;;28.58;24.75;97089.25;5116026;28;20039;-68
2022/07/19 09:13:07;;;;;;;3.70;1.20;;;;;;;28.44;24.03;97079.09;5115962;28;20043;-67
2022/07/19 09:15:49;;;;;;;1.83;1.20;;;;;;;28.87;22.94;97079.97;5115622;28;20501;-67
2022/07/19 09:18:20;;;;;;;3.28;0.98;;;;;;;29.01;23.52;97077.69;5115786;28;20107;-68
2022/07/19 09:20:50;;;;;;;9.73;1.10;;;;;;;29.13;23.96;97072.84;5115645;28;20050;-67
2022/07/19 09:23:19;;;;;;;6.43;1.10;;;;;;;29.07;23.65;97078.91;5115646;28;20453;-67
2022/07/19 09:25:52;;;;;;;1.73;1.15;;;;;;;28.74;23.27;97074.19;5115705;28;20048;-69
2022/07/19 09:28:21;;;;;;;2.20;1.08;;;;;;;28.82;24.48;97078.78;5115416;28;20086;-70
2022/07/19 09:30:50;;;;;;;1.73;1.05;;;;;;;28.70;23.82;97076.38;5115561;28;20055;-69
2022/07/19 09:33:19;;;;;;;2.25;1.08;;;;;;;28.62;25.51;97082.56;5115049;28;20560;-70
2022/07/19 09:35:50;;;;;;;4.78;1.40;;;;;;;28.44;24.08;97069.16;5115147;28;20048;-69
2022/07/19 09:38:25;;;;;;;1.95;1.30;;;;;;;28.56;25.00;97079.69;5115336;28;20048;-69
2022/07/19 09:41:09;;;;;;;2.20;1.58;;;;;;;28.65;22.91;97073.31;5115376;28;20086;-70
2022/07/19 09:43:51;;;;;;;1.00;0.80;;;;;;;28.32;24.51;97079.34;5115323;28;20051;-69
2022/07/19 09:46:34;;;;;;;2.65;0.98;;;;;;;27.74;24.42;97086.94;5115240;28;20122;-69
2022/07/19 09:49:07;;;;;;;1.08;0.90;;;;;;;27.67;25.72;97078.66;5115172;28;20617;-69
2022/07/19 09:51:35;;;;;;;1.90;1.05;;;;;;;27.98;24.03;97070.19;5115091;28;20043;-69
2022/07/19 09:54:06;;;;;;;2.92;1.17;;;;;;;28.21;24.45;97084.97;5114887;28;20054;-69
2022/07/19 09:56:34;;;;;;;;;;;;;;;28.41;23.91;97079.41;5115287;28;20508;-69
2022/07/19 09:59:01;;;;;;;5.22;1.10;;;;;;;28.44;24.53;97068.34;5114818;28;19919;-69
2022/07/19 10:01:30;;;;;;;7.55;1.20;;;;;;;28.35;23.82;97065.59;5114566;28;20055;-69
2022/07/19 10:04:02;;;;;;;2.22;1.20;;;;;;;28.61;24.19;97077.34;5114975;28;20083;-69
2022/07/19 10:06:30;;;;;;;1.95;1.02;;;;;;;28.54;24.28;97076.28;5114737;28;20505;-69
2022/07/19 10:08:58;;;;;;;3.17;1.00;;;;;;;28.47;23.63;97068.84;5114568;28;20048;-69
2022/07/19 10:11:29;;;;;;;2.03;1.00;;;;;;;28.17;24.00;97060.22;5114673;28;20122;-70
2022/07/19 10:13:57;;;;;;;2.10;1.05;;;;;;;28.42;24.17;97062.28;5114658;28;20501;-69
2022/07/19 10:16:42;;;;;;;4.78;1.20;;;;;;;28.92;24.97;97052.56;5114682;28;20059;-69
2022/07/19 10:19:17;;;;;;;2.38;1.00;;;;;;;29.33;22.97;97049.19;5114387;28;20504;-69
2022/07/19 10:21:46;;;;;;;2.17;1.10;;;;;;;29.12;23.21;97052.34;5114473;28;20524;-69
2022/07/19 10:24:14;;;;;;;4.10;1.50;;;;;;;29.10;23.08;97047.13;5114315;28;20054;-70
2022/07/19 10:26:44;;;;;;;2.55;1.00;;;;;;;29.10;23.64;97044.41;5114214;28;20108;-69
2022/07/19 10:29:13;;;;;;;1.45;1.00;;;;;;;29.23;23.50;97048.50;5114276;28;20043;-69
2022/07/19 10:31:41;;;;;;;3.03;1.20;;;;;;;29.06;23.43;97048.44;5114223;28;20039;-69
2022/07/19 10:34:10;;;;;;;5.35;1.20;;;;;;;29.30;23.77;97052.22;5114167;28;20048;-69
2022/07/19 10:36:42;;;;;;;1.10;0.93;;;;;;;29.03;23.35;97050.63;5114092;28;20054;-69
2022/07/19 10:39:26;;;;;;;2.40;1.50;;;;;;;28.87;23.60;97044.16;5114163;28;20134;-69
2022/07/19 10:42:20;;;;;;;1.02;0.93;;;;;;;29.26;23.12;97037.41;5114190;28;20087;-69
2022/07/19 10:45:13;;;;;;;4.60;1.02;;;;;;;29.43;23.55;97029.34;5094827;28;20128;-69
2022/07/19 10:48:01;;;;;;;2.42;1.10;;;;;;;29.11;23.40;97034.50;5113815;28;20458;-69
2022/07/19 10:50:44;;;;;;;5.00;1.00;;;;;;;29.12;24.43;97042.41;5114071;28;20122;-70
2022/07/19 10:53:11;;;;;;;2.72;1.20;;;;;;;29.14;23.02;97024.22;5113756;28;20043;-69
2022/07/19 10:55:39;;;;;;;1.30;1.20;;;;;;;28.89;24.01;97028.66;5113825;28;20138;-70
2022/07/19 10:58:12;;;;;;;3.60;1.10;;;;;;;28.37;24.69;97027.78;5113746;28;20043;-70
2022/07/19 11:00:45;;;;;;;4.72;1.13;;;;;;;28.44;24.29;97017.25;5113486;28;20496;-70
2022/07/19 11:03:30;;;;;;;1.27;1.08;;;;;;;28.78;25.15;97016.38;5113808;28;20050;-70
2022/07/19 11:06:00;;;;;;;1.20;1.10;;;;;;;28.63;24.45;97025.03;5113837;28;20044;-70
2022/07/19 11:08:34;;;;;;;1.45;0.88;;;;;;;28.66;24.04;97012.28;5113955;28;20058;-70
2022/07/19 11:11:09;;;;;;;1.70;1.10;;;;;;;28.87;24.95;97014.56;5113605;28;20161;-69
2022/07/19 11:13:39;;;;;;;12.25;1.20;;;;;;;28.89;23.52;96999.06;5113487;28;20451;-70
2022/07/19 11:16:07;;;;;;;1.13;1.02;;;;;;;29.08;23.70;96997.13;5113455;28;20093;-70
2022/07/19 11:18:35;;;;;;;1.83;1.05;;;;;;;29.06;23.86;97004.53;5113605;28;20097;-69
2022/07/19 11:21:04;;;;;;;2.70;1.20;;;;;;;29.29;23.78;97004.75;5113644;28;20552;-69
2022/07/19 11:23:33;;;;;;;2.88;1.02;;;;;;;29.49;22.91;96999.03;5113480;28;20039;-70
2022/07/19 11:26:09;;;;;;;4.97;1.00;;;;;;;29.68;24.19;96995.22;5113574;28;20048;-69
2022/07/19 11:28:38;;;;;;;6.82;1.20;;;;;;;30.06;24.01;96993.78;5113482;28;20048;-70
2022/07/19 11:31:16;;;;;;;4.32;0.90;;;;;;;30.02;23.03;97002.25;5113401;28;20121;-69
2022/07/19 11:33:46;;;;;;;3.28;1.02;;;;;;;29.29;23.92;96991.28;5113306;28;20043;-70
2022/07/19 11:36:15;;;;;;;1.27;1.05;;;;;;;28.84;24.41;96991.47;5113267;28;20484;-69
2022/07/19 11:38:44;;;;;;;2.88;1.25;;;;;;;28.67;24.06;96987.91;5113274;28;20048;-70
2022/07/19 11:41:17;;;;;;;2.78;1.05;;;;;;;28.84;24.27;96996.03;5113268;28;20047;-69
2022/07/19 11:43:53;;;;;;;1.08;0.98;;;;;;;29.04;23.78;96993.09;5113369;28;20478;-69
2022/07/19 11:46:22;;;;;;;2.78;1.10;;;;;;;29.34;24.63;96998.84;5113234;28;20090;-70